Hai Run — 9LU2533 — position and weather

sailwx.info

Track history (hours):
 
Tides and Currents Weather Stations Pressure Air Temp Water Temp Dewpoint Dewpoint Depression Visibility Wind Speed Wind Dir Waves Ship Positions

Hai Run

Last reported at 2017-Nov-18 12:13 UTC. Time now 2017-Nov-22 01:35 UTC.
Position N 34°35' E 134°51'.

Length 78 m; draft 4.5 m.

Type: Cargo ship. MMSI: 667001730.

Date/timePositionNaut miles runAvg speedWind from/ knotsBaromVisibWave heightAir tempDewpointWater temp
2017-Nov-18 12:13N 34°35' E 134°51'2 9.7
2017-Nov-18 11:59N 34°36' E 134°53'4 9.4
2017-Nov-18 11:30N 34°37' E 134°58'5 9.8
2017-Nov-18 11:00N 34°36' E 135°04'4 8.1
2017-Nov-18 10:30N 34°35' E 135°09'4 8.0
2017-Nov-18 10:00N 34°34' E 135°14'4 7.9
2017-Nov-18 09:30N 34°33' E 135°18'4 7.8
2017-Nov-18 09:00N 34°32' E 135°23'1 0.1
2017-Nov-17 22:51N 34°31' E 135°23'1 3.9
2017-Nov-17 22:29N 34°32' E 135°22'0 0.3
2017-Nov-17 22:00N 34°32' E 135°22'0 0.0
2017-Nov-17 21:29N 34°32' E 135°22'0 0.0
2017-Nov-17 20:59N 34°32' E 135°22'0 0.0
2017-Nov-17 20:30N 34°32' E 135°22'0 0.0
2017-Nov-17 19:52N 34°32' E 135°22'0 0.0
2017-Nov-17 19:22N 34°32' E 135°22'0 0.0
2017-Nov-17 18:59N 34°32' E 135°22'0 0.1
2017-Nov-17 18:29N 34°32' E 135°22'0 0.0
2017-Nov-17 18:00N 34°32' E 135°22'0 0.0
2017-Nov-17 17:29N 34°32' E 135°22'0 0.1
2017-Nov-17 16:59N 34°32' E 135°22'0 0.0
2017-Nov-17 16:28N 34°32' E 135°22'0 0.0
2017-Nov-17 16:00N 34°32' E 135°22'0 0.0
2017-Nov-17 15:30N 34°32' E 135°22'0 0.0
2017-Nov-17 14:59N 34°32' E 135°22'0 0.0
2017-Nov-17 14:30N 34°32' E 135°22'0 0.1
2017-Nov-17 14:00N 34°32' E 135°22'0 0.1
2017-Nov-17 13:26N 34°32' E 135°22'0 0.0
2017-Nov-17 12:58N 34°32' E 135°22'0 0.1
2017-Nov-17 12:23N 34°32' E 135°22'0 0.1
2017-Nov-17 11:29N 34°32' E 135°22'0 0.0
2017-Nov-17 10:48N 34°32' E 135°22'0 0.0
2017-Nov-17 10:30N 34°32' E 135°22'0 0.0
2017-Nov-17 10:00N 34°32' E 135°22'0 0.1
2017-Nov-17 09:30N 34°32' E 135°22'4 7.3
2017-Nov-17 09:00N 34°35' E 135°20'4 8.8
2017-Nov-17 08:30N 34°38' E 135°24'1 2.9
2017-Nov-17 08:00N 34°39' E 135°25'0 0.0
2017-Nov-17 07:17N 34°39' E 135°25'0 0.0
2017-Nov-17 06:59N 34°39' E 135°25'0 0.0
2017-Nov-17 06:23N 34°39' E 135°25'0 0.0
2017-Nov-17 05:53N 34°39' E 135°25'0 0.0
2017-Nov-17 05:29N 34°39' E 135°25'0 0.0
2017-Nov-17 04:53N 34°39' E 135°25'0 0.0
2017-Nov-17 04:29N 34°39' E 135°25'0 0.0
2017-Nov-17 03:47N 34°39' E 135°25'0 0.0
2017-Nov-17 03:29N 34°39' E 135°25'0 0.0
2017-Nov-17 02:59N 34°39' E 135°25'0 0.0
2017-Nov-17 02:11N 34°39' E 135°25'0 0.0
2017-Nov-17 01:59N 34°39' E 135°25'0 0.0
2017-Nov-17 01:29N 34°39' E 135°25'0 0.0
2017-Nov-17 00:59N 34°39' E 135°25'0 0.0
2017-Nov-17 00:29N 34°39' E 135°25'0 0.0
2017-Nov-16 23:59N 34°39' E 135°25'0 0.0
2017-Nov-16 23:29N 34°39' E 135°25'0 0.0
2017-Nov-16 22:59N 34°39' E 135°25'0 0.0
2017-Nov-16 22:29N 34°39' E 135°25'2 3.7
2017-Nov-16 22:00N 34°38' E 135°24'2 2.8
2017-Nov-16 21:25N 34°37' E 135°22'0 0.1
2017-Nov-16 20:55N 34°37' E 135°22'0 0.1
2017-Nov-16 20:25N 34°37' E 135°22'0 0.0
2017-Nov-16 19:55N 34°37' E 135°22'0 0.1
2017-Nov-16 19:19N 34°37' E 135°22'0 0.0
2017-Nov-16 18:55N 34°37' E 135°22'0 0.1
2017-Nov-16 18:25N 34°37' E 135°22'0 0.0
2017-Nov-16 17:55N 34°37' E 135°22'0 0.0
2017-Nov-16 17:25N 34°37' E 135°22'0 0.0
2017-Nov-16 16:49N 34°37' E 135°22'0 0.1
2017-Nov-16 16:13N 34°37' E 135°22'0 0.2
2017-Nov-16 15:55N 34°37' E 135°22'0 0.1
2017-Nov-16 15:31N 34°37' E 135°22'2 4.4
2017-Nov-16 15:00N 34°36' E 135°20'510.1
2017-Nov-16 14:30N 34°35' E 135°14'511.0
2017-Nov-16 14:00N 34°34' E 135°07'611.2
2017-Nov-16 13:30N 34°37' E 135°01'  
2017-Nov-10 08:02N 30°53' E 122°28'1 9.1
2017-Nov-10 07:58N 30°53' E 122°27'5 9.0
2017-Nov-10 07:23N 30°56' E 122°22'3 8.7
2017-Nov-10 07:01N 30°58' E 122°19'4 8.3
2017-Nov-10 06:30N 31°01' E 122°15'4 7.4
2017-Nov-10 06:00N 31°03' E 122°12'4 7.7
2017-Nov-10 05:31N 31°03' E 122°07'4 7.6
2017-Nov-10 05:01N 31°04' E 122°03'4 8.6
2017-Nov-10 04:30N 31°06' E 121°58'5 9.5
2017-Nov-10 04:00N 31°08' E 121°54'610.0
2017-Nov-10 03:25N 31°12' E 121°49'511.3
2017-Nov-10 03:01N 31°16' E 121°45'611.7
2017-Nov-10 02:31N 31°20' E 121°41'611.4
2017-Nov-10 02:00N 31°23' E 121°35'4 8.1
2017-Nov-10 01:30N 31°23' E 121°30'3 6.4
2017-Nov-10 01:01N 31°21' E 121°33'4 7.1
2017-Nov-10 00:30N 31°17' E 121°34'3 6.8
2017-Nov-10 00:00N 31°15' E 121°31'5 5.2
2017-Nov-09 23:02N 31°11' E 121°28'1 5.3
2017-Nov-09 22:48N 31°09' E 121°28'3 0.2
2017-Nov-09 10:04N 31°12' E 121°29'1 7.1
2017-Nov-09 09:58N 31°12' E 121°30'2 5.1
2017-Nov-09 09:30N 31°14' E 121°29'3 5.9
2017-Nov-09 09:00N 31°15' E 121°33'3 5.9
2017-Nov-09 08:30N 31°18' E 121°33'3 6.3
2017-Nov-09 08:00N 31°21' E 121°31'3 5.5
2017-Nov-09 07:30N 31°24' E 121°31'5 9.1
2017-Nov-09 07:00N 31°23' E 121°36'510.8
2017-Nov-09 06:30N 31°20' E 121°42'510.5
2017-Nov-09 06:00N 31°16' E 121°46'1011.4
2017-Nov-09 05:10N 31°09' E 121°53'210.9
2017-Nov-09 05:00N 31°08' E 121°55'510.5
2017-Nov-09 04:29N 31°05' E 122°00'5 9.9
2017-Nov-09 04:00N 31°04' E 122°06'510.6
2017-Nov-09 03:30N 31°03' E 122°12'7 1.6
2017-Nov-08 22:58N 30°60' E 122°19'3 5.9
2017-Nov-08 22:30N 30°58' E 122°22'  
Track history (hours):
 
Tides and Currents Weather Stations Pressure Air Temp Water Temp Dewpoint Dewpoint Depression Visibility Wind Speed Wind Dir Waves Ship Positions

Hai Run

Last reported at 2017-Nov-18 12:13 UTC. Time now 2017-Nov-22 01:35 UTC.
Position N 34°35' E 134°51'.

Length 78 m; draft 4.5 m.

Type: Cargo ship. MMSI: 667001730.

Date/timePositionNaut miles runAvg speedWind from/ knotsBaromVisibWave heightAir tempDewpointWater temp
2017-Nov-18 12:13N 34°35' E 134°51'2 9.7
2017-Nov-18 11:59N 34°36' E 134°53'4 9.4
2017-Nov-18 11:30N 34°37' E 134°58'5 9.8
2017-Nov-18 11:00N 34°36' E 135°04'4 8.1
2017-Nov-18 10:30N 34°35' E 135°09'4 8.0
2017-Nov-18 10:00N 34°34' E 135°14'4 7.9
2017-Nov-18 09:30N 34°33' E 135°18'4 7.8
2017-Nov-18 09:00N 34°32' E 135°23'1 0.1
2017-Nov-17 22:51N 34°31' E 135°23'1 3.9
2017-Nov-17 22:29N 34°32' E 135°22'0 0.3
2017-Nov-17 22:00N 34°32' E 135°22'0 0.0
2017-Nov-17 21:29N 34°32' E 135°22'0 0.0
2017-Nov-17 20:59N 34°32' E 135°22'0 0.0
2017-Nov-17 20:30N 34°32' E 135°22'0 0.0
2017-Nov-17 19:52N 34°32' E 135°22'0 0.0
2017-Nov-17 19:22N 34°32' E 135°22'0 0.0
2017-Nov-17 18:59N 34°32' E 135°22'0 0.1
2017-Nov-17 18:29N 34°32' E 135°22'0 0.0
2017-Nov-17 18:00N 34°32' E 135°22'0 0.0
2017-Nov-17 17:29N 34°32' E 135°22'0 0.1
2017-Nov-17 16:59N 34°32' E 135°22'0 0.0
2017-Nov-17 16:28N 34°32' E 135°22'0 0.0
2017-Nov-17 16:00N 34°32' E 135°22'0 0.0
2017-Nov-17 15:30N 34°32' E 135°22'0 0.0
2017-Nov-17 14:59N 34°32' E 135°22'0 0.0
2017-Nov-17 14:30N 34°32' E 135°22'0 0.1
2017-Nov-17 14:00N 34°32' E 135°22'0 0.1
2017-Nov-17 13:26N 34°32' E 135°22'0 0.0
2017-Nov-17 12:58N 34°32' E 135°22'0 0.1
2017-Nov-17 12:23N 34°32' E 135°22'0 0.1
2017-Nov-17 11:29N 34°32' E 135°22'0 0.0
2017-Nov-17 10:48N 34°32' E 135°22'0 0.0
2017-Nov-17 10:30N 34°32' E 135°22'0 0.0
2017-Nov-17 10:00N 34°32' E 135°22'0 0.1
2017-Nov-17 09:30N 34°32' E 135°22'4 7.3
2017-Nov-17 09:00N 34°35' E 135°20'4 8.8
2017-Nov-17 08:30N 34°38' E 135°24'1 2.9
2017-Nov-17 08:00N 34°39' E 135°25'0 0.0
2017-Nov-17 07:17N 34°39' E 135°25'0 0.0
2017-Nov-17 06:59N 34°39' E 135°25'0 0.0
2017-Nov-17 06:23N 34°39' E 135°25'0 0.0
2017-Nov-17 05:53N 34°39' E 135°25'0 0.0
2017-Nov-17 05:29N 34°39' E 135°25'0 0.0
2017-Nov-17 04:53N 34°39' E 135°25'0 0.0
2017-Nov-17 04:29N 34°39' E 135°25'0 0.0
2017-Nov-17 03:47N 34°39' E 135°25'0 0.0
2017-Nov-17 03:29N 34°39' E 135°25'0 0.0
2017-Nov-17 02:59N 34°39' E 135°25'0 0.0
2017-Nov-17 02:11N 34°39' E 135°25'0 0.0
2017-Nov-17 01:59N 34°39' E 135°25'0 0.0
2017-Nov-17 01:29N 34°39' E 135°25'0 0.0
2017-Nov-17 00:59N 34°39' E 135°25'0 0.0
2017-Nov-17 00:29N 34°39' E 135°25'0 0.0
2017-Nov-16 23:59N 34°39' E 135°25'0 0.0
2017-Nov-16 23:29N 34°39' E 135°25'0 0.0
2017-Nov-16 22:59N 34°39' E 135°25'0 0.0
2017-Nov-16 22:29N 34°39' E 135°25'2 3.7
2017-Nov-16 22:00N 34°38' E 135°24'2 2.8
2017-Nov-16 21:25N 34°37' E 135°22'0 0.1
2017-Nov-16 20:55N 34°37' E 135°22'0 0.1
2017-Nov-16 20:25N 34°37' E 135°22'0 0.0
2017-Nov-16 19:55N 34°37' E 135°22'0 0.1
2017-Nov-16 19:19N 34°37' E 135°22'0 0.0
2017-Nov-16 18:55N 34°37' E 135°22'0 0.1
2017-Nov-16 18:25N 34°37' E 135°22'0 0.0
2017-Nov-16 17:55N 34°37' E 135°22'0 0.0
2017-Nov-16 17:25N 34°37' E 135°22'0 0.0
2017-Nov-16 16:49N 34°37' E 135°22'0 0.1
2017-Nov-16 16:13N 34°37' E 135°22'0 0.2
2017-Nov-16 15:55N 34°37' E 135°22'0 0.1
2017-Nov-16 15:31N 34°37' E 135°22'2 4.4
2017-Nov-16 15:00N 34°36' E 135°20'510.1
2017-Nov-16 14:30N 34°35' E 135°14'511.0
2017-Nov-16 14:00N 34°34' E 135°07'611.2
2017-Nov-16 13:30N 34°37' E 135°01'  
2017-Nov-10 08:02N 30°53' E 122°28'1 9.1
2017-Nov-10 07:58N 30°53' E 122°27'5 9.0
2017-Nov-10 07:23N 30°56' E 122°22'3 8.7
2017-Nov-10 07:01N 30°58' E 122°19'4 8.3
2017-Nov-10 06:30N 31°01' E 122°15'4 7.4
2017-Nov-10 06:00N 31°03' E 122°12'4 7.7
2017-Nov-10 05:31N 31°03' E 122°07'4 7.6
2017-Nov-10 05:01N 31°04' E 122°03'4 8.6
2017-Nov-10 04:30N 31°06' E 121°58'5 9.5
2017-Nov-10 04:00N 31°08' E 121°54'610.0
2017-Nov-10 03:25N 31°12' E 121°49'511.3
2017-Nov-10 03:01N 31°16' E 121°45'611.7
2017-Nov-10 02:31N 31°20' E 121°41'611.4
2017-Nov-10 02:00N 31°23' E 121°35'4 8.1
2017-Nov-10 01:30N 31°23' E 121°30'3 6.4
2017-Nov-10 01:01N 31°21' E 121°33'4 7.1
2017-Nov-10 00:30N 31°17' E 121°34'3 6.8
2017-Nov-10 00:00N 31°15' E 121°31'5 5.2
2017-Nov-09 23:02N 31°11' E 121°28'1 5.3
2017-Nov-09 22:48N 31°09' E 121°28'3 0.2
2017-Nov-09 10:04N 31°12' E 121°29'1 7.1
2017-Nov-09 09:58N 31°12' E 121°30'2 5.1
2017-Nov-09 09:30N 31°14' E 121°29'3 5.9
2017-Nov-09 09:00N 31°15' E 121°33'3 5.9
2017-Nov-09 08:30N 31°18' E 121°33'3 6.3
2017-Nov-09 08:00N 31°21' E 121°31'3 5.5
2017-Nov-09 07:30N 31°24' E 121°31'5 9.1
2017-Nov-09 07:00N 31°23' E 121°36'510.8
2017-Nov-09 06:30N 31°20' E 121°42'510.5
2017-Nov-09 06:00N 31°16' E 121°46'1011.4
2017-Nov-09 05:10N 31°09' E 121°53'210.9
2017-Nov-09 05:00N 31°08' E 121°55'510.5
2017-Nov-09 04:29N 31°05' E 122°00'5 9.9
2017-Nov-09 04:00N 31°04' E 122°06'510.6
2017-Nov-09 03:30N 31°03' E 122°12'7 1.6
2017-Nov-08 22:58N 30°60' E 122°19'3 5.9
2017-Nov-08 22:30N 30°58' E 122°22'  

Dump ship's entire track history